Time;durP1;ratioP1;P1;durP2;ratioP2;P2;SDS_P1;SDS_P2;PMS_P1;PMS_P2;Temp;Humidity;BMP_temperature;BMP_pressure;BME280_temperature;BME280_humidity;BME280_pressure;Samples;Min_cycle;Max_cycle;Signal;HPM_P1;HPM_P2
2021/05/07 00:00:29;;;;;;;;;;;;;;;27.62;26.67;100591.47;5036849;28;887;-35
2021/05/07 00:02:54;;;;;;;;;;;;;;;27.63;26.90;100597.69;5036760;28;760;-35
2021/05/07 00:05:19;;;;;;;;;;;;;;;27.62;27.00;100588.78;5036811;28;811;-35
2021/05/07 00:07:45;;;;;;;;;;;;;;;27.58;27.16;100592.88;5036681;28;783;-31
2021/05/07 00:10:13;;;;;;;;;;;;;;;27.62;27.03;100599.56;5036142;28;996;-32
2021/05/07 00:12:38;;;;;;;;;;;;;;;27.60;26.48;100588.13;5036532;28;824;-33
2021/05/07 00:15:03;;;;;;;;;;;;;;;27.64;26.74;100588.56;5036427;28;1532;-35
2021/05/07 00:17:29;;;;;;;;;;;;;;;27.62;27.23;100590.63;5051406;28;1967;-35
2021/05/07 00:19:54;;;;;;;;;;;;;;;27.64;27.40;100602.09;5051779;28;1090;-35
2021/05/07 00:22:19;;;;;;;;;;;;;;;27.58;27.72;100595.56;5036365;28;841;-36
2021/05/07 00:24:48;;;;;;;;;;;;;;;27.54;27.83;100594.28;5035967;28;972;-32
2021/05/07 00:27:16;;;;;;;;;;;;;;;27.54;27.98;100593.44;5036292;28;828;-32
2021/05/07 00:29:41;;;;;;;;;;;;;;;27.51;28.28;100592.78;5036216;28;831;-33
2021/05/07 00:32:06;;;;;;;;;;;;;;;27.58;28.04;100602.81;5036129;28;856;-36
2021/05/07 00:34:32;;;;;;;;;;;;;;;27.60;27.86;100603.47;5036227;28;806;-36
2021/05/07 00:36:57;;;;;;;;;;;;;;;27.58;27.99;100603.66;5035980;28;1466;-36
2021/05/07 00:39:22;;;;;;;;;;;;;;;27.56;28.28;100605.72;5036110;28;1981;-36
2021/05/07 00:41:48;;;;;;;;;;;;;;;27.54;28.58;100606.94;5036011;28;867;-34
2021/05/07 00:44:13;;;;;;;;;;;;;;;27.51;28.40;100610.84;5036357;28;748;-36
2021/05/07 00:46:38;;;;;;;;;;;;;;;27.52;28.47;100617.94;5036647;28;792;-36
2021/05/07 00:49:04;;;;;;;;;;;;;;;27.53;28.50;100619.59;5055672;28;835;-36
2021/05/07 00:51:29;;;;;;;;;;;;;;;27.57;28.66;100618.22;5040340;28;767;-35
2021/05/07 00:56:38;;;;;;;;;;;;;;;27.50;28.91;100618.13;5052761;28;677;-35
2021/05/07 00:59:03;;;;;;;;;;;;;;;27.56;28.87;100618.41;5055789;28;1901;-36
2021/05/07 01:01:31;;;;;;;;;;;;;;;27.55;28.92;100622.13;5039931;28;740;-37
2021/05/07 01:03:56;;;;;;;;;;;;;;;27.52;28.81;100617.94;5040177;28;870;-36
2021/05/07 01:06:21;;;;;;;;;;;;;;;27.55;28.76;100611.31;5039705;28;752;-36
2021/05/07 01:08:47;;;;;;;;;;;;;;;27.54;28.83;100604.25;5039547;28;948;-34
2021/05/07 01:11:12;;;;;;;;;;;;;;;27.50;29.02;100599.22;5055503;28;771;-36
2021/05/07 01:13:37;;;;;;;;;;;;;;;27.55;29.10;100597.81;5039827;28;747;-35
2021/05/07 01:16:39;;;;;;;;;;;;;;;27.54;29.05;100602.38;5039540;28;814;-35
2021/05/07 01:19:05;;;;;;;;;;;;;;;27.55;28.29;100603.22;5039811;28;1977;-36
2021/05/07 01:21:30;;;;;;;;;;;;;;;27.60;28.63;100598.91;5039400;28;1072;-35
2021/05/07 01:24:07;;;;;;;;;;;;;;;27.57;28.74;100603.88;5039174;28;968;-37
2021/05/07 01:26:39;;;;;;;;;;;;;;;27.56;28.99;100594.91;5039736;28;709;-36
2021/05/07 01:29:11;;;;;;;;;;;;;;;27.63;28.89;100595.84;5039824;28;791;-35
2021/05/07 01:31:36;;;;;;;;;;;;;;;27.59;28.93;100602.63;5039298;28;878;-36
2021/05/07 01:34:01;;;;;;;;;;;;;;;27.60;28.77;100598.06;5039531;28;810;-34
2021/05/07 01:36:27;;;;;;;;;;;;;;;27.58;28.67;100598.28;5039207;28;739;-37
2021/05/07 01:38:52;;;;;;;;;;;;;;;27.60;28.74;100600.78;5039294;28;1914;-36
2021/05/07 01:41:17;;;;;;;;;;;;;;;27.63;29.09;100600.41;5039480;28;843;-35
2021/05/07 01:43:42;;;;;;;;;;;;;;;27.61;28.92;100592.47;5039332;28;829;-30
2021/05/07 01:46:08;;;;;;;;;;;;;;;27.61;28.79;100597.06;5038911;28;925;-33
2021/05/07 01:48:33;;;;;;;;;;;;;;;27.62;29.16;100599.56;5039009;28;711;-36
2021/05/07 01:50:58;;;;;;;;;;;;;;;27.62;28.93;100591.47;5038927;28;775;-36
2021/05/07 01:53:24;;;;;;;;;;;;;;;27.65;28.87;100589.38;5054155;28;964;-36
2021/05/07 01:55:50;;;;;;;;;;;;;;;27.61;28.92;100592.47;5038674;28;811;-36
2021/05/07 01:58:16;;;;;;;;;;;;;;;27.55;29.07;100587.00;5038206;28;1960;-35
2021/05/07 02:00:42;;;;;;;;;;;;;;;27.59;29.14;100586.41;5039320;28;786;-37
2021/05/07 02:03:08;;;;;;;;;;;;;;;27.60;29.37;100588.13;5038964;28;784;-35
2021/05/07 02:05:34;;;;;;;;;;;;;;;27.57;29.45;100585.78;5038366;28;847;-36
2021/05/07 02:07:59;;;;;;;;;;;;;;;27.55;29.40;100595.09;5038549;28;816;-36
2021/05/07 02:10:25;;;;;;;;;;;;;;;27.59;29.09;100591.81;5038674;28;961;-36
2021/05/07 02:12:51;;;;;;;;;;;;;;;27.61;28.65;100583.56;5038560;28;793;-35
2021/05/07 02:15:17;;;;;;;;;;;;;;;27.59;29.09;100583.72;5038797;28;824;-36
2021/05/07 02:17:42;;;;;;;;;;;;;;;27.60;28.96;100589.97;5020666;28;1963;-36
2021/05/07 02:20:07;;;;;;;;;;;;;;;27.61;28.82;100592.47;5038428;28;1108;-36
2021/05/07 02:22:33;;;;;;;;;;;;;;;27.56;28.66;100591.38;5038555;28;731;-36
2021/05/07 02:25:04;;;;;;;;;;;;;;;27.55;28.98;100589.69;5052831;28;952;-36
2021/05/07 02:27:29;;;;;;;;;;;;;;;27.58;28.86;100594.72;5058452;28;751;-34
2021/05/07 02:29:54;;;;;;;;;;;;;;;27.61;28.74;100597.88;5058357;28;760;-35
2021/05/07 02:32:20;;;;;;;;;;;;;;;27.53;29.32;100600.69;5058230;28;752;-35
2021/05/07 02:34:46;;;;;;;;;;;;;;;27.55;29.30;100597.81;5050143;28;807;-36
2021/05/07 02:37:12;;;;;;;;;;;;;;;27.58;29.54;100597.41;5057888;28;828;-36
2021/05/07 02:39:37;;;;;;;;;;;;;;;27.60;29.05;100600.78;5057749;28;1930;-32
2021/05/07 02:42:03;;;;;;;;;;;;;;;27.54;29.45;100599.69;5058097;28;803;-30
2021/05/07 02:44:28;;;;;;;;;;;;;;;27.49;29.19;100594.81;5058197;28;791;-35
2021/05/07 02:46:53;;;;;;;;;;;;;;;27.59;29.29;100599.13;5057880;28;767;-35
2021/05/07 02:49:19;;;;;;;;;;;;;;;27.59;29.29;100604.50;5058051;28;756;-33
2021/05/07 02:51:44;;;;;;;;;;;;;;;27.57;29.06;100604.72;5058002;28;756;-36
2021/05/07 02:57:12;;;;;;;;;;;;;;;27.49;28.96;100608.34;5057312;28;629;-36
2021/05/07 02:59:37;;;;;;;;;;;;;;;27.51;29.09;100605.44;5057593;28;1897;-35
2021/05/07 03:02:02;;;;;;;;;;;;;;;27.58;28.87;100608.22;5057844;28;759;-37
2021/05/07 03:04:28;;;;;;;;;;;;;;;27.55;29.02;100608.59;5057766;28;786;-35
2021/05/07 03:06:53;;;;;;;;;;;;;;;27.51;29.31;100605.44;5057481;28;887;-37
2021/05/07 03:09:18;;;;;;;;;;;;;;;27.55;29.46;100604.06;5056303;28;1068;-36
2021/05/07 03:11:44;;;;;;;;;;;;;;;27.40;29.62;100601.38;5057627;28;727;-37
2021/05/07 03:14:09;;;;;;;;;;;;;;;27.00;28.29;100597.09;5057117;28;809;-33
2021/05/07 03:16:37;;;;;;;;;;;;;;;26.59;25.13;100594.81;5057465;28;735;-35
2021/05/07 03:19:03;;;;;;;;;;;;;;;25.86;24.98;100614.91;5057757;28;1968;-37
2021/05/07 03:21:28;;;;;;;;;;;;;;;25.42;25.20;100607.16;5056795;28;1278;-36
2021/05/07 03:23:54;;;;;;;;;;;;;;;25.30;25.07;100604.03;5056947;28;931;-37
2021/05/07 03:26:19;;;;;;;;;;;;;;;25.09;25.40;100590.31;5057326;28;759;-35
2021/05/07 03:28:44;;;;;;;;;;;;;;;25.01;26.13;100600.06;5057166;28;811;-37
2021/05/07 03:31:09;;;;;;;;;;;;;;;24.76;26.20;100600.09;5057354;28;937;-32
2021/05/07 03:33:35;;;;;;;;;;;;;;;24.60;26.07;100603.66;5057318;28;798;-33
2021/05/07 03:36:03;;;;;;;;;;;;;;;24.37;26.19;100606.19;5056890;28;984;-37
2021/05/07 03:38:28;;;;;;;;;;;;;;;23.99;26.20;100598.56;5056404;28;1980;-36
2021/05/07 03:40:54;;;;;;;;;;;;;;;24.02;26.65;100599.09;5057245;28;837;-35
2021/05/07 03:43:19;;;;;;;;;;;;;;;23.88;26.67;100597.88;5057006;28;858;-35
2021/05/07 03:45:44;;;;;;;;;;;;;;;24.09;26.58;100599.22;5057014;28;854;-35
2021/05/07 03:48:22;;;;;;;;;;;;;;;23.94;27.29;100597.19;5057047;28;759;-37
2021/05/07 03:50:47;;;;;;;;;;;;;;;24.00;27.35;100598.41;5056922;28;799;-33
2021/05/07 03:53:12;;;;;;;;;;;;;;;24.04;27.54;100601.59;5055604;28;1450;-32
2021/05/07 03:55:44;;;;;;;;;;;;;;;24.06;27.88;100604.94;5048954;28;810;-37
2021/05/07 03:58:09;;;;;;;;;;;;;;;24.37;27.10;100601.66;5048828;28;1973;-35
2021/05/07 04:00:34;;;;;;;;;;;;;;;24.38;27.26;100605.16;5036921;28;807;-37
2021/05/07 04:03:00;;;;;;;;;;;;;;;24.35;27.30;100606.34;5049409;28;798;-37
2021/05/07 04:05:25;;;;;;;;;;;;;;;24.23;27.95;100597.78;5056646;28;767;-36
2021/05/07 04:10:46;;;;;;;;;;;;;;;24.14;28.60;100598.75;5036085;28;944;-38
2021/05/07 04:15:55;;;;;;;;;;;;;;;24.18;28.50;100592.06;5056650;28;648;-36
2021/05/07 04:18:21;;;;;;;;;;;;;;;24.19;28.70;100588.38;5056332;28;1906;-37
2021/05/07 04:20:46;;;;;;;;;;;;;;;24.17;28.34;100583.13;5056530;28;1076;-37
2021/05/07 04:23:11;;;;;;;;;;;;;;;24.26;28.08;100577.78;5056002;28;1011;-35
2021/05/07 04:25:37;;;;;;;;;;;;;;;24.29;28.42;100580.97;5056008;28;798;-36
2021/05/07 04:28:02;;;;;;;;;;;;;;;24.24;28.81;100580.63;5056577;28;823;-35
2021/05/07 04:30:27;;;;;;;;;;;;;;;24.29;29.01;100594.41;5056289;28;831;-38
2021/05/07 04:32:53;;;;;;;;;;;;;;;24.28;29.38;100586.50;5055891;28;886;-35
2021/05/07 04:35:18;;;;;;;;;;;;;;;24.35;29.25;100579.47;5056383;28;791;-39
2021/05/07 04:37:44;;;;;;;;;;;;;;;24.20;30.15;100581.97;5056141;28;1906;-31
2021/05/07 04:40:10;;;;;;;;;;;;;;;23.17;31.50;100588.19;5055623;28;960;-42
2021/05/07 04:42:35;;;;;;;;;;;;;;;22.65;33.41;100589.91;5056092;28;872;-37
2021/05/07 04:45:01;;;;;;;;;;;;;;;22.59;33.67;100587.81;5056219;28;815;-30
2021/05/07 04:47:26;;;;;;;;;;;;;;;22.16;34.39;100587.63;5056084;28;795;-36
2021/05/07 04:49:51;;;;;;;;;;;;;;;22.31;34.53;100585.25;5056300;28;836;-33
2021/05/07 04:52:16;;;;;;;;;;;;;;;21.94;35.23;100595.13;5056049;28;732;-36
2021/05/07 04:54:51;;;;;;;;;;;;;;;20.83;37.68;100601.06;5055738;28;908;-35
2021/05/07 04:57:16;;;;;;;;;;;;;;;20.03;39.61;100605.59;5055941;28;845;-33
2021/05/07 04:59:41;;;;;;;;;;;;;;;21.11;37.71;100602.97;5055785;28;1914;-35
2021/05/07 05:02:07;;;;;;;;;;;;;;;21.77;36.77;100611.81;5056065;28;812;-34
2021/05/07 05:04:32;;;;;;;;;;;;;;;22.55;35.14;100618.63;5056091;28;800;-35
2021/05/07 05:06:57;;;;;;;;;;;;;;;22.50;34.24;100619.09;5055384;28;878;-30
2021/05/07 05:09:23;;;;;;;;;;;;;;;22.97;33.32;100620.59;5055683;28;955;-34
2021/05/07 05:11:48;;;;;;;;;;;;;;;23.18;32.57;100619.41;5056117;28;721;-36
2021/05/07 05:14:13;;;;;;;;;;;;;;;23.22;32.53;100618.06;5055955;28;808;-34
2021/05/07 05:16:40;;;;;;;;;;;;;;;23.10;32.65;100624.72;5056058;28;755;-34
2021/05/07 05:19:05;;;;;;;;;;;;;;;23.19;32.45;100618.38;5055780;28;1905;-34
2021/05/07 05:21:30;;;;;;;;;;;;;;;23.35;32.38;100614.13;5055450;28;1281;-33
2021/05/07 05:23:56;;;;;;;;;;;;;;;23.65;32.46;100613.75;5055530;28;959;-33
2021/05/07 05:26:21;;;;;;;;;;;;;;;23.93;32.02;100608.97;5055558;28;782;-35
2021/05/07 05:28:46;;;;;;;;;;;;;;;24.06;31.70;100608.47;5055870;28;866;-35
2021/05/07 05:31:13;;;;;;;;;;;;;;;24.40;30.97;100608.53;5055908;28;786;-33
2021/05/07 05:33:38;;;;;;;;;;;;;;;24.48;30.62;100613.91;5057729;28;807;-31
2021/05/07 05:36:04;;;;;;;;;;;;;;;24.39;30.83;100613.06;5059360;28;763;-34
2021/05/07 05:38:29;;;;;;;;;;;;;;;24.48;30.61;100619.28;5058988;28;1913;-35
2021/05/07 05:40:54;;;;;;;;;;;;;;;24.49;30.72;100618.25;5059440;28;819;-34
2021/05/07 05:43:19;;;;;;;;;;;;;;;24.58;30.74;100622.66;5059304;28;755;-36
2021/05/07 05:45:45;;;;;;;;;;;;;;;24.42;31.10;100622.66;5058957;28;807;-35
2021/05/07 05:48:12;;;;;;;;;;;;;;;24.33;31.04;100625.34;5074402;28;1516;-34
2021/05/07 05:50:38;;;;;;;;;;;;;;;24.26;31.14;100634.22;5059182;28;750;-32
2021/05/07 05:53:04;;;;;;;;;;;;;;;24.37;30.86;100635.75;5059251;28;898;-35
2021/05/07 05:55:38;;;;;;;;;;;;;;;24.30;31.34;100647.19;5056285;28;936;-33
2021/05/07 05:58:04;;;;;;;;;;;;;;;24.47;30.69;100636.44;5051884;28;1963;-31
2021/05/07 06:00:29;;;;;;;;;;;;;;;24.40;31.06;100633.59;5058079;28;857;-32
2021/05/07 06:02:54;;;;;;;;;;;;;;;24.76;30.88;100640.44;5058099;28;823;-39
2021/05/07 06:05:20;;;;;;;;;;;;;;;24.78;31.01;100643.81;5058796;28;779;-38
2021/05/07 06:07:45;;;;;;;;;;;;;;;24.87;30.04;100641.97;5058577;28;858;-37
2021/05/07 06:10:11;;;;;;;;;;;;;;;24.93;29.41;100640.44;5058076;28;956;-33
2021/05/07 06:12:40;;;;;;;;;;;;;;;25.09;30.05;100644.13;5058617;28;825;-32
2021/05/07 06:15:05;;;;;;;;;;;;;;;25.17;29.99;100647.63;5058541;28;1027;-34
2021/05/07 06:17:34;;;;;;;;;;;;;;;25.24;30.09;100636.19;5040655;28;1412;-32
2021/05/07 06:20:03;;;;;;;;;;;;;;;25.30;29.54;100635.50;5058669;28;1902;-32
2021/05/07 06:22:28;;;;;;;;;;;;;;;25.40;29.64;100625.38;5058626;28;802;-33
2021/05/07 06:25:04;;;;;;;;;;;;;;;25.37;29.35;100617.63;5057814;28;1006;-32
2021/05/07 06:27:29;;;;;;;;;;;;;;;25.53;29.76;100614.03;5055428;28;1234;-31
2021/05/07 06:29:54;;;;;;;;;;;;;;;25.62;30.02;100619.38;5054907;28;1337;-34
2021/05/07 06:32:20;;;;;;;;;;;;;;;25.72;29.39;100613.78;5050556;28;862;-32
2021/05/07 06:34:45;;;;;;;;;;;;;;;25.73;29.03;100605.53;5039665;28;863;-36
2021/05/07 06:37:10;;;;;;;;;;;;;;;25.73;29.77;100604.69;5058111;28;794;-31
2021/05/07 06:39:36;;;;;;;;;;;;;;;25.67;29.47;100595.47;5057725;28;1905;-34
2021/05/07 06:42:01;;;;;;;;;;;;;;;25.66;30.02;100596.47;5058298;28;786;-32
2021/05/07 06:44:26;;;;;;;;;;;;;;;25.76;30.33;100588.16;5057058;28;806;-32
2021/05/07 06:46:52;;;;;;;;;;;;;;;25.90;30.28;100592.81;5057963;28;874;-30
2021/05/07 06:49:18;;;;;;;;;;;;;;;25.91;30.24;100593.63;5058216;28;818;-32
2021/05/07 06:51:43;;;;;;;;;;;;;;;25.97;30.42;100592.94;5057868;28;794;-30
2021/05/07 06:54:09;;;;;;;;;;;;;;;26.06;30.60;100595.56;5057855;28;1003;-34
2021/05/07 06:56:34;;;;;;;;;;;;;;;26.12;30.49;100597.53;5057661;28;839;-33
2021/05/07 06:58:59;;;;;;;;;;;;;;;26.14;30.53;100587.41;5057756;28;1957;-31
2021/05/07 07:01:28;;;;;;;;;;;;;;;26.21;30.70;100591.06;5057922;28;818;-33
2021/05/07 07:03:54;;;;;;;;;;;;;;;26.28;30.61;100592.03;5057942;28;797;-31
2021/05/07 07:06:20;;;;;;;;;;;;;;;26.32;30.33;100586.25;5057522;28;786;-31
2021/05/07 07:08:47;;;;;;;;;;;;;;;26.33;30.27;100588.81;5057301;28;947;-34
2021/05/07 07:11:12;;;;;;;;;;;;;;;26.43;30.38;100576.91;5057868;28;833;-32
2021/05/07 07:13:38;;;;;;;;;;;;;;;26.47;30.41;100581.78;5057594;28;831;-34
2021/05/07 07:16:03;;;;;;;;;;;;;;;26.48;30.78;100572.66;5057494;28;751;-30
2021/05/07 07:18:29;;;;;;;;;;;;;;;26.50;30.60;100573.31;5057475;28;1906;-35
2021/05/07 07:20:57;;;;;;;;;;;;;;;26.52;30.47;100576.69;5057025;28;1264;-32
2021/05/07 07:23:22;;;;;;;;;;;;;;;26.57;30.25;100570.72;5055348;28;923;-31
2021/05/07 07:25:59;;;;;;;;;;;;;;;26.59;30.59;100574.06;5037526;28;826;-31
2021/05/07 07:28:25;;;;;;;;;;;;;;;26.57;30.69;100575.28;5039456;28;980;-32
2021/05/07 07:30:50;;;;;;;;;;;;;;;26.72;30.43;100568.06;5056662;28;804;-33
2021/05/07 07:33:15;;;;;;;;;;;;;;;26.81;30.61;100573.38;5056885;28;848;-32
2021/05/07 07:35:41;;;;;;;;;;;;;;;26.85;30.64;100569.25;5056789;28;836;-32
2021/05/07 07:38:06;;;;;;;;;;;;;;;26.73;30.50;100563.47;5056826;28;1914;-33
2021/05/07 07:40:31;;;;;;;;;;;;;;;26.95;30.62;100566.28;5035897;28;959;-35
2021/05/07 07:42:57;;;;;;;;;;;;;;;26.99;30.16;100563.00;5037401;28;709;-30
2021/05/07 07:45:22;;;;;;;;;;;;;;;27.01;30.21;100570.91;5036811;28;827;-33
2021/05/07 07:47:47;;;;;;;;;;;;;;;26.97;30.50;100562.38;5036612;28;1448;-37
2021/05/07 07:50:13;;;;;;;;;;;;;;;26.99;30.61;100554.91;5037457;28;787;-32
2021/05/07 07:52:39;;;;;;;;;;;;;;;26.98;30.60;100558.66;5037050;28;839;-35
2021/05/07 07:57:54;;;;;;;;;;;;;;;27.18;30.30;100555.41;5036587;28;1971;-32
2021/05/07 08:00:20;;;;;;;;;;;;;;;27.26;30.34;100554.44;5036800;28;743;-37
2021/05/07 08:02:46;;;;;;;;;;;;;;;27.37;30.42;100558.53;5036559;28;744;-34
2021/05/07 08:05:11;;;;;;;;;;;;;;;27.53;29.82;100551.25;5037042;28;760;-31
2021/05/07 08:07:37;;;;;;;;;;;;;;;27.57;29.70;100549.81;5037325;28;859;-32
2021/05/07 08:10:02;;;;;;;;;;;;;;;27.34;30.36;100551.63;5036120;28;1011;-33
2021/05/07 08:12:29;;;;;;;;;;;;;;;27.34;30.41;100546.25;5036744;28;1430;-30
2021/05/07 08:14:54;;;;;;;;;;;;;;;27.56;30.16;100542.75;5036315;28;808;-29
2021/05/07 08:17:29;;;;;;;;;;;;;;;27.56;30.22;100548.97;5036221;28;780;-33
2021/05/07 08:19:54;;;;;;;;;;;;;;;27.34;30.47;100543.53;5043198;28;1902;-30
2021/05/07 08:22:19;;;;;;;;;;;;;;;27.39;29.87;100543.81;5056404;28;840;-31
2021/05/07 08:24:45;;;;;;;;;;;;;;;27.56;30.06;100532.78;5041055;28;1430;-32
2021/05/07 08:27:10;;;;;;;;;;;;;;;27.56;29.88;100535.47;5050007;28;849;-31
2021/05/07 08:29:36;;;;;;;;;;;;;;;27.66;29.62;100529.75;5041653;28;794;-35
2021/05/07 08:32:01;;;;;;;;;;;;;;;27.51;30.61;100524.41;5056440;28;807;-31
2021/05/07 08:34:26;;;;;;;;;;;;;;;27.65;30.43;100519.97;5056373;28;842;-34
2021/05/07 08:36:51;;;;;;;;;;;;;;;27.66;30.33;100518.94;5056147;28;764;-33
2021/05/07 08:39:19;;;;;;;;;;;;;;;26.80;33.50;100515.00;5050060;28;1914;-32
2021/05/07 08:41:44;;;;;;;;;;;;;;;27.02;34.16;100516.81;5056174;28;838;-34
2021/05/07 08:44:09;;;;;;;;;;;;;;;27.20;33.78;100518.25;5056541;28;831;-32
2021/05/07 08:46:35;;;;;;;;;;;;;;;27.58;31.77;100510.97;5055736;28;780;-34
2021/05/07 08:49:00;;;;;;;;;;;;;;;27.57;31.63;100512.00;5056402;28;881;-29
2021/05/07 08:51:25;;;;;;;;;;;;;;;27.75;31.60;100507.03;5071217;28;929;-32
2021/05/07 08:53:51;;;;;;;;;;;;;;;27.68;31.91;100514.22;5050399;28;987;-30
2021/05/07 08:56:19;;;;;;;;;;;;;;;27.73;31.78;100503.66;5036521;28;835;-34
2021/05/07 08:58:47;;;;;;;;;;;;;;;27.77;31.69;100501.41;5036014;28;1996;-31
2021/05/07 09:01:13;;;;;;;;;;;;;;;27.86;31.47;100508.34;5036351;28;787;-32
2021/05/07 09:03:43;;;;;;;;;;;;;;;27.89;31.90;100506.31;5036194;28;763;-31
2021/05/07 09:06:18;;;;;;;;;;;;;;;27.77;32.39;100508.69;5035978;28;711;-36
2021/05/07 09:08:44;;;;;;;;;;;;;;;27.75;32.33;100492.66;5042966;28;1011;-32
2021/05/07 09:11:10;;;;;;;;;;;;;;;27.81;32.39;100507.28;5059778;28;819;-33
2021/05/07 09:13:35;;;;;;;;;;;;;;;28.04;31.56;100508.94;5059821;28;755;-33
2021/05/07 09:16:07;;;;;;;;;;;;;;;27.87;32.21;100495.69;5075757;28;811;-31
2021/05/07 09:18:42;;;;;;;;;;;;;;;27.99;31.93;100493.31;5060143;28;1898;-33
2021/05/07 09:21:08;;;;;;;;;;;;;;;27.55;32.71;100501.38;5059588;28;1089;-34
2021/05/07 09:23:40;;;;;;;;;;;;;;;27.61;33.06;100494.38;5074696;28;1002;-31
2021/05/07 09:26:05;;;;;;;;;;;;;;;27.82;32.43;100490.03;5059537;28;820;-31
2021/05/07 09:28:30;;;;;;;;;;;;;;;27.73;32.43;100489.31;5059514;28;778;-33
2021/05/07 09:31:08;;;;;;;;;;;;;;;27.93;32.06;100491.34;5059657;28;855;-35
2021/05/07 09:33:33;;;;;;;;;;;;;;;27.92;32.31;100479.72;5059657;28;800;-32
2021/05/07 09:35:58;;;;;;;;;;;;;;;27.93;33.24;100475.97;5041118;28;1250;-34
2021/05/07 09:38:24;;;;;;;;;;;;;;;28.00;32.16;100470.63;5041375;28;1963;-35
2021/05/07 09:40:49;;;;;;;;;;;;;;;28.04;32.03;100460.25;5074534;28;1207;-34
2021/05/07 09:43:17;;;;;;;;;;;;;;;28.24;31.72;100460.41;5058964;28;922;-32
2021/05/07 09:45:43;;;;;;;;;;;;;;;28.39;31.43;100464.91;5059645;28;787;-36
2021/05/07 09:48:17;;;;;;;;;;;;;;;28.32;31.28;100454.84;5059562;28;1399;-34
2021/05/07 09:50:43;;;;;;;;;;;;;;;28.37;31.49;100446.16;5059111;28;776;-35
2021/05/07 09:53:09;;;;;;;;;;;;;;;28.36;31.86;100441.78;5058991;28;797;-35
2021/05/07 09:55:34;;;;;;;;;;;;;;;28.51;31.36;100457.06;5058649;28;987;-33
2021/05/07 09:58:00;;;;;;;;;;;;;;;28.49;31.33;100443.72;5058621;28;1902;-34
2021/05/07 10:00:25;;;;;;;;;;;;;;;28.42;31.43;100445.56;5041350;28;748;-36
2021/05/07 10:02:50;;;;;;;;;;;;;;;28.32;31.83;100441.31;5040101;28;813;-36
2021/05/07 10:05:16;;;;;;;;;;;;;;;28.38;31.82;100439.69;5040478;28;831;-36
2021/05/07 10:07:41;;;;;;;;;;;;;;;28.42;31.51;100438.28;5058642;28;784;-32
2021/05/07 10:10:06;;;;;;;;;;;;;;;28.38;31.47;100437.00;5042641;28;947;-36
2021/05/07 10:12:33;;;;;;;;;;;;;;;28.46;31.53;100431.41;5039157;28;747;-33
2021/05/07 10:14:58;;;;;;;;;;;;;;;28.51;31.20;100419.19;5020835;28;1157;-35
2021/05/07 10:17:24;;;;;;;;;;;;;;;28.52;31.18;100418.97;5038685;28;803;-31
2021/05/07 10:19:52;;;;;;;;;;;;;;;28.49;31.49;100419.38;5038221;28;1910;-36
2021/05/07 10:22:25;;;;;;;;;;;;;;;28.47;31.47;100416.03;5021127;28;824;-31
2021/05/07 10:24:50;;;;;;;;;;;;;;;28.11;31.58;100416.00;5036159;28;1181;-31
2021/05/07 10:27:24;;;;;;;;;;;;;;;27.97;32.05;100423.22;5049661;28;886;-36
2021/05/07 10:29:51;;;;;;;;;;;;;;;28.20;32.23;100422.09;5058232;28;865;-34
2021/05/07 10:32:16;;;;;;;;;;;;;;;28.32;31.85;100426.94;5058591;28;801;-37
2021/05/07 10:34:42;;;;;;;;;;;;;;;28.30;31.93;100421.75;5058225;28;868;-36
2021/05/07 10:37:12;;;;;;;;;;;;;;;28.32;31.67;100425.09;5058524;28;775;-36
2021/05/07 10:39:39;;;;;;;;;;;;;;;28.44;31.38;100428.09;5057553;28;1906;-35
2021/05/07 10:42:04;;;;;;;;;;;;;;;28.52;31.80;100421.69;5058338;28;825;-37
2021/05/07 10:44:39;;;;;;;;;;;;;;;28.55;31.44;100409.59;5040178;28;1428;-35
2021/05/07 10:47:10;;;;;;;;;;;;;;;28.52;31.40;100418.13;5058026;28;803;-33
2021/05/07 10:49:42;;;;;;;;;;;;;;;28.49;31.50;100411.25;5058109;28;859;-37
2021/05/07 10:52:08;;;;;;;;;;;;;;;28.35;31.74;100407.66;5057696;28;811;-36
2021/05/07 10:54:34;;;;;;;;;;;;;;;28.29;32.45;100398.44;5057722;28;1022;-34
2021/05/07 10:57:00;;;;;;;;;;;;;;;28.38;31.58;100388.31;5058239;28;865;-34
2021/05/07 10:59:25;;;;;;;;;;;;;;;28.42;32.25;100394.16;5057703;28;1905;-31
2021/05/07 11:02:00;;;;;;;;;;;;;;;28.34;32.24;100373.53;5073083;28;907;-34
2021/05/07 11:04:26;;;;;;;;;;;;;;;28.46;31.69;100362.97;5057548;28;829;-36
2021/05/07 11:07:00;;;;;;;;;;;;;;;28.39;32.07;100359.38;5057601;28;762;-33
2021/05/07 11:09:27;;;;;;;;;;;;;;;28.44;31.84;100356.91;5057908;28;1011;-31
2021/05/07 11:11:53;;;;;;;;;;;;;;;28.34;32.19;100357.28;5057536;28;1325;-33
2021/05/07 11:14:19;;;;;;;;;;;;;;;28.43;31.99;100360.63;5057305;28;1025;-35
2021/05/07 11:16:53;;;;;;;;;;;;;;;28.58;31.92;100366.75;5057240;28;854;-33
2021/05/07 11:19:19;;;;;;;;;;;;;;;28.41;32.10;100370.84;5072306;28;1902;-34
2021/05/07 11:21:48;;;;;;;;;;;;;;;28.34;31.98;100365.41;5057039;28;1310;-31
2021/05/07 11:24:14;;;;;;;;;;;;;;;28.44;32.09;100357.75;5057366;28;995;-36
2021/05/07 11:26:39;;;;;;;;;;;;;;;28.54;31.78;100357.38;5057312;28;858;-36
2021/05/07 11:29:04;;;;;;;;;;;;;;;28.39;31.85;100352.13;5055389;28;835;-36
2021/05/07 11:31:30;;;;;;;;;;;;;;;28.47;31.88;100354.66;5056412;28;803;-31
2021/05/07 11:33:55;;;;;;;;;;;;;;;28.47;31.97;100348.41;5057202;28;719;-36
2021/05/07 11:36:20;;;;;;;;;;;;;;;28.32;32.55;100324.16;5056926;28;807;-36
2021/05/07 11:38:45;;;;;;;;;;;;;;;28.30;32.22;100335.19;5056908;28;1914;-31
2021/05/07 11:41:17;;;;;;;;;;;;;;;28.27;32.35;100334.75;5052826;28;1036;-37
2021/05/07 11:43:43;;;;;;;;;;;;;;;28.30;32.41;100324.38;5056834;28;825;-35
2021/05/07 11:46:08;;;;;;;;;;;;;;;28.24;32.51;100320.59;5056412;28;847;-36
2021/05/07 11:48:34;;;;;;;;;;;;;;;28.26;32.48;100327.69;5057098;28;797;-35
2021/05/07 11:51:03;;;;;;;;;;;;;;;28.17;32.24;100324.31;5038487;28;878;-31
2021/05/07 11:53:28;;;;;;;;;;;;;;;28.19;32.51;100328.50;5056660;28;1003;-31
2021/05/07 11:55:53;;;;;;;;;;;;;;;28.27;32.35;100307.69;5056907;28;742;-31
2021/05/07 11:58:31;;;;;;;;;;;;;;;28.43;32.17;100311.94;5056348;28;1910;-32
2021/05/07 12:00:56;;;;;;;;;;;;;;;28.38;32.02;100317.97;5057074;28;760;-35
2021/05/07 12:03:25;;;;;;;;;;;;;;;28.39;32.14;100311.53;5048282;28;818;-36
2021/05/07 12:05:50;;;;;;;;;;;;;;;28.35;32.06;100304.84;5019833;28;748;-36
2021/05/07 12:08:24;;;;;;;;;;;;;;;28.31;32.46;100303.56;5037168;28;968;-30
2021/05/07 12:10:49;;;;;;;;;;;;;;;28.40;32.10;100298.81;5056752;28;759;-28
2021/05/07 12:13:21;;;;;;;;;;;;;;;28.33;32.03;100293.41;5056717;28;905;-30
2021/05/07 12:15:48;;;;;;;;;;;;;;;28.15;32.98;100283.94;5056466;28;767;-34
2021/05/07 12:18:17;;;;;;;;;;;;;;;28.08;33.23;100288.47;5071835;28;1955;-32
2021/05/07 12:20:43;;;;;;;;;;;;;;;28.02;32.92;100279.31;5056200;28;1278;-32
2021/05/07 12:23:08;;;;;;;;;;;;;;;27.96;33.10;100277.41;5056656;28;743;-36
2021/05/07 12:25:39;;;;;;;;;;;;;;;27.94;32.68;100291.13;5056173;28;963;-37
2021/05/07 12:28:11;;;;;;;;;;;;;;;28.01;33.19;100279.53;5056504;28;772;-36
2021/05/07 12:30:36;;;;;;;;;;;;;;;28.04;33.31;100282.66;5056271;28;802;-30
2021/05/07 12:33:05;;;;;;;;;;;;;;;28.06;32.95;100287.88;5056516;28;799;-33
2021/05/07 12:38:34;;;;;;;;;;;;;;;28.17;33.19;100272.91;5055315;28;1956;-36
2021/05/07 12:41:13;;;;;;;;;;;;;;;28.20;32.94;100267.94;5056259;28;795;-35
2021/05/07 12:43:39;;;;;;;;;;;;;;;28.21;32.94;100257.97;5058386;28;812;-36
2021/05/07 12:46:04;;;;;;;;;;;;;;;28.15;33.15;100248.78;5060500;28;841;-33
2021/05/07 12:48:29;;;;;;;;;;;;;;;28.19;32.86;100246.53;5060349;28;735;-29
2021/05/07 12:50:55;;;;;;;;;;;;;;;28.14;33.26;100247.13;5060058;28;799;-31
2021/05/07 12:53:21;;;;;;;;;;;;;;;28.14;33.31;100232.78;5059713;28;1138;-31
2021/05/07 12:55:46;;;;;;;;;;;;;;;28.18;33.09;100215.94;5060447;28;760;-37
2021/05/07 12:58:12;;;;;;;;;;;;;;;28.16;33.14;100215.28;5059830;28;1902;-36
2021/05/07 13:00:38;;;;;;;;;;;;;;;28.26;33.07;100231.13;5060144;28;834;-35
2021/05/07 13:03:04;;;;;;;;;;;;;;;28.32;33.42;100234.91;5053956;28;1255;-34
2021/05/07 13:05:29;;;;;;;;;;;;;;;28.26;33.03;100235.72;5063625;28;1238;-36
2021/05/07 13:07:54;;;;;;;;;;;;;;;28.23;33.21;100245.91;5051375;28;1285;-36